Flight Track Log - Related Links

Times and Time Zones

All times are in EDT time to prevent confusion due to time zone crossing. See the EJA820 flight status page for this flight to view local times or setup timezone preferences in your user account.


Time Position Orientation Groundspeed Altitude Reporting Facility
EDT Latitude Longitude Course Direction KTS MPH feet Rate Location/Type
Fri 01:11:25 PM 42.0833 -70.2553 178° South 206 237 9,900  Level Boston Center
Fri 01:12:26 PM 42.0167 -70.2519 178° South 225 259 9,900 836 Level Boston Center
Fri 01:13:27 PM 41.9483 -70.2739 193° South 247 284 11,600 1,765 Climbing Boston Center
Fri 01:14:25 PM 41.8928 -70.3178 210° Southwest 241 277 13,400 1,815 Climbing Boston Center
Fri 01:15:26 PM 41.8394 -70.3614 211° Southwest 236 272 15,200 1,230 Climbing Boston Center
Fri 01:16:27 PM 41.8181 -70.4400 250° West 227 261 15,900 347 Climbing Boston Center
Fri 01:17:27 PM 41.8072 -70.5433 262° West 239 275 15,900  Level Boston Center
Fri 01:18:27 PM 41.7986 -70.6522 264° West 267 307 15,900  Level Boston Center
Fri 01:19:25 PM 41.7878 -70.7639 263° West 298 343 15,900  Level Boston Center
Fri 01:20:25 PM 41.7789 -70.8756 264° West 308 354 15,900  Level Boston Center
Fri 01:21:26 PM 41.7681 -70.9928 263° West 314 361 15,900  Level Boston Center
Fri 01:22:26 PM 41.7589 -71.1069 264° West 314 361 15,900  Level Boston Center
Fri 01:23:25 PM 41.7872 -71.2206 289° West 314 361 15,900  Level Boston Center
Fri 01:24:26 PM 41.8197 -71.3369 291° West 314 361 15,900  Level Boston Center
Fri 01:25:27 PM 41.8500 -71.4453 291° West 321 369 15,900 50 Level Boston Center
Fri 01:26:27 PM 41.8653 -71.5369 283° West 321 369 16,000 102 Climbing Boston Center
Fri 01:27:25 PM 41.8725 -71.6733 274° West 316 364 16,100 50 Climbing Boston Center
Fri 01:28:26 PM 41.8797 -71.7906 275° West 316 364 16,100 -545 Level Boston Center
Fri 01:29:26 PM 41.8886 -71.9075 276° West 311 358 15,000 -992 Descending Boston Center
Fri 01:30:27 PM 41.8953 -72.0189 275° West 311 358 14,100 -446 Descending Boston Center
Fri 01:31:27 PM 41.9039 -72.1278 276° West 305 351 14,100  Level Boston Center
Fri 01:32:25 PM 41.9106 -72.2336 275° West 300 345 14,100 -51 Level Boston Center
Fri 01:33:25 PM 41.9169 -72.3397 275° West 294 338 14,000 -50 Descending Boston Center
Fri 01:34:25 PM 41.9253 -72.4514 276° West 294 338 14,000  Level Boston Center
Fri 01:35:26 PM 41.9336 -72.5600 276° West 294 338 14,000  Level Boston Center
Fri 01:36:25 PM 41.9375 -72.6717 273° West 294 338 14,000  Level Boston Center
Fri 01:37:25 PM 41.9144 -72.7525 249° West 283 326 14,000 -364 Level Boston Center
Fri 01:38:37 PM 41.8744 -72.8528 242° Southwest 278 320 13,200 -902 Descending Boston Center
Fri 01:39:38 PM 41.8303 -72.9583 241° Southwest 283 326 12,000 -590 Descending Boston Center
Fri 01:40:39 PM 41.7922 -73.0497 241° Southwest 266 306 12,000  Level Boston Center
Fri 01:41:39 PM 41.7586 -73.1303 241° Southwest 260 299 12,000  Level Boston Center
Fri 01:42:37 PM 41.7247 -73.2133 241° Southwest 255 293 12,000  Level Boston Center
Fri 01:43:38 PM 41.6928 -73.2853 239° Southwest 255 293 12,000  Level Boston Center
Fri 01:44:39 PM 41.6547 -73.3708 239° Southwest 255 293 12,000 -347 Level Boston Center
Fri 01:45:39 PM 41.6247 -73.4425 241° Southwest 249 287 11,300 -1,273 Descending Boston Center
Fri 01:47:24 PM 41.5667 -73.5833 241° Southwest 236 272 8,500 -1,698 Descending New York TRACON
Fri 01:48:18 PM 41.5333 -73.6500 236° Southwest 224 258 6,800 -2,050 Descending New York TRACON
Fri 01:49:24 PM 41.4833 -73.7000 217° Southwest 204 235 4,400 -1,762 Descending New York TRACON
Fri 01:50:24 PM 41.4333 -73.7333 207° Southwest 183 211 3,100 -737 Descending New York TRACON
Fri 01:51:18 PM 41.4000 -73.7667 217° Southwest 138 159 3,000 -53 Descending New York TRACON
Fri 01:52:18 PM 41.3667 -73.8000 217° Southwest 174 200 3,000  Level New York TRACON
Fri 01:53:18 PM 41.3167 -73.8000 180° South 163 188 3,000 -500 Level New York TRACON
Fri 01:54:18 PM 41.2833 -73.7833 159° South 176 203 2,000 -333 Descending New York TRACON
Fri 01:56:18 PM 41.2000 -73.7500 163° South 168 193 2,000  Level New York TRACON
Fri 01:57:18 PM 41.1500 -73.7500 180° South 136 157 2,000 -200 Level New York TRACON
Fri 01:58:18 PM 41.1167 -73.7333 159° South 133 153 1,600 -400 Descending New York TRACON

Login

Don't have an account? Register now (free) for customized features, flight alerts, and more!